Salem, UT (84653)

11:09 PM MDT on October 19, 2014 (GMT -0600)
Ironrod | Change Station
CLOSE
Current Station
Personal Weather Station
Location: Elk Ridge, UT
Elevation: 5420 ft
Nearby Weather Stations

Elev 5420 ft 40.01 °N, 111.68 °W | Updated 4 minutes ago

Clear
Clear
47.3 °F
Feels Like 46 °F
N
4.0
Wind Variable Wind from NNE
Gusts 5.0 mph

Today
High -- | Low -- °F
--% Chance of Precip.
Yesterday
High -- | Low -- °F
Precip. -- in
7:41 AM 6:41 PM
Waning Crescent, 13% visible
Pressure 30.05 in
Visibility 10.0 miles
Clouds Clear
Windchill 46 °F
Dew Point 31 °F
Humidity 53%
Rainfall 0.00 in
Snow Depth 0 in , 1 in
UV 0 out of 12
Pollen 1.80 out of 12
Air Quality Not available.
Flu Activity Sporadic
METAR KPVU 200315Z AUTO 00000KT 10SM CLR 13/06 A3005 RMK AO1

More Conditions Fewer Conditions

Pressure 30.05 in
Visibility 10.0 miles
Clouds Clear
Windchill 46 °F
Dew Point 31 °F
Humidity 53%
Rainfall 0.00 in
Snow Depth 0 in , 1 in
UV 0 out of 12
Pollen 1.80 out of 12
Air Quality Not available.
Flu Activity Sporadic
METAR KPVU 200315Z AUTO 00000KT 10SM CLR 13/06 A3005 RMK AO1

More Conditions Fewer Conditions

10-Day Weather Forecast

Almanac

Astronomy

Oct. 19, 2014 Rise Set
Actual Time 7:41 AM MDT 6:41 PM MDT
Civil Twilight 7:13 AM MDT 7:08 PM MDT
Nautical Twilight 6:42 AM MDT 7:39 PM MDT
Astronomical Twilight 6:11 AM MDT 8:11 PM MDT
Moon 3:37 AM MDT (10/19) 4:34 PM MDT (10/19)
Length of Visible Light 11h 54m
Length of Day
10h 59m
Waning Crescent, 13% of the Moon is Illuminated
Oct 20
Waning Crescent
Oct 23
New
Oct 30
First Quarter
Nov 6
Full
Nov 14
Last Quarter

Yesterday's Extremes

State Highs State Lows

Community

WunderPhotos

Upload Photos

1,763,306 photos uploaded!

Nearby

Snow Depth

Station Depth Elevation
Payson R.S. 0 in 8050 ft
Cascade Mountain 1 in 7768 ft
Clear Creek #1 0 in 9200 ft
Clear Creek #2 1 in 8300 ft
Strawberry Divide 1 in 8400 ft

Earthquake Activity

City Distance Mag. Time & Date
No recent earthquake activity has been reported nearby.
Minimum magnitude displayed is 2.5.

Coastal Water Temperatures

Place Temperature
No Stations Reporting

Nearby Weather Stations